createdAt,value
2019-02-02T00:05:45.435Z,87.80
2019-02-02T00:10:49.370Z,87.60
2019-02-02T00:15:53.660Z,87.60
2019-02-02T00:20:57.543Z,87.60
2019-02-02T00:26:01.359Z,87.50
2019-02-02T00:31:05.331Z,87.40
2019-02-02T00:36:09.355Z,87.30
2019-02-02T00:41:13.271Z,87.40
2019-02-02T00:46:16.992Z,87.70
2019-02-02T00:51:20.901Z,88.00
2019-02-02T00:56:24.720Z,88.50
2019-02-02T01:01:28.821Z,89.00
2019-02-02T01:06:32.751Z,89.20
2019-02-02T01:11:36.995Z,89.70
2019-02-02T01:16:40.836Z,89.70
2019-02-02T01:21:44.681Z,90.00
2019-02-02T01:26:48.414Z,90.20
2019-02-02T01:31:52.479Z,90.50
2019-02-02T01:36:56.502Z,90.60
2019-02-02T01:42:00.319Z,90.80
2019-02-02T01:47:04.102Z,90.80
2019-02-02T01:52:07.831Z,90.90
2019-02-02T01:57:11.527Z,91.00
2019-02-02T02:02:15.427Z,91.10
2019-02-02T02:07:19.204Z,91.10
2019-02-02T02:12:22.960Z,91.20
2019-02-02T02:17:26.944Z,91.30
2019-02-02T02:22:40.882Z,91.70
2019-02-02T02:27:36.258Z,91.30
2019-02-02T02:32:40.055Z,91.30
2019-02-02T02:37:44.189Z,91.30
2019-02-02T02:42:48.947Z,91.20
2019-02-02T02:47:52.709Z,91.20
2019-02-02T02:52:56.443Z,91.30
2019-02-02T02:58:00.314Z,91.30
2019-02-02T03:03:04.411Z,91.30
2019-02-02T03:08:08.269Z,91.30
2019-02-02T03:13:12.066Z,91.40
2019-02-02T03:18:15.796Z,91.50
2019-02-02T03:23:19.585Z,91.60
2019-02-02T03:28:23.566Z,91.60
2019-02-02T03:33:27.336Z,91.70
2019-02-02T03:38:31.133Z,91.80
2019-02-02T03:43:34.876Z,92.30
2019-02-02T03:48:38.661Z,91.90
2019-02-02T03:53:42.360Z,91.90
2019-02-02T03:58:46.238Z,91.90
2019-02-02T04:03:49.985Z,92.00
2019-02-02T04:08:53.727Z,92.00
2019-02-02T04:13:57.475Z,92.20
2019-02-02T04:19:01.162Z,92.20
2019-02-02T04:24:05.061Z,92.10
2019-02-02T04:29:17.560Z,92.20
2019-02-02T04:34:14.313Z,92.20
2019-02-02T04:39:18.058Z,92.20
2019-02-02T04:44:21.804Z,92.20
2019-02-02T04:49:25.613Z,92.20
2019-02-02T04:54:29.362Z,92.20
2019-02-02T04:59:33.327Z,92.20
2019-02-02T05:04:37.299Z,92.20
2019-02-02T05:09:41.098Z,92.20
2019-02-02T05:14:44.849Z,92.20
2019-02-02T05:19:48.863Z,92.20
2019-02-02T05:24:52.605Z,92.40
2019-02-02T05:29:56.342Z,92.40
2019-02-02T05:35:00.087Z,92.50
2019-02-02T05:40:04.718Z,92.70
2019-02-02T05:45:10.148Z,92.70
2019-02-02T05:50:15.619Z,92.80
2019-02-02T05:55:19.647Z,92.80
2019-02-02T06:00:44.666Z,92.80
2019-02-02T06:05:48.694Z,92.80
2019-02-02T06:10:52.425Z,92.80
2019-02-02T06:15:56.259Z,92.80
2019-02-02T06:20:59.987Z,92.90
2019-02-02T06:26:03.846Z,92.80
2019-02-02T06:31:07.626Z,92.70
2019-02-02T06:36:12.460Z,93.20
2019-02-02T06:41:17.238Z,92.70
2019-02-02T06:46:22.032Z,92.70
2019-02-02T06:51:27.019Z,92.80
2019-02-02T06:56:29.269Z,92.70
2019-02-02T07:01:33.846Z,92.90
2019-02-02T07:06:38.854Z,92.80
2019-02-02T07:11:44.953Z,92.90
2019-02-02T07:16:49.317Z,92.90
2019-02-02T07:21:54.174Z,92.90
2019-02-02T07:26:58.895Z,93.00
2019-02-02T07:32:04.717Z,93.00
2019-02-02T07:37:09.166Z,93.10
2019-02-02T07:42:13.179Z,93.20
2019-02-02T07:47:18.666Z,93.20
2019-02-02T07:52:23.242Z,93.20
2019-02-02T07:57:27.884Z,93.30
2019-02-02T08:02:32.092Z,93.30
2019-02-02T08:07:37.184Z,93.30
2019-02-02T08:12:41.767Z,93.20
2019-02-02T08:17:46.135Z,93.20
2019-02-02T08:22:49.993Z,93.20
2019-02-02T08:27:54.086Z,93.20
2019-02-02T08:32:57.950Z,93.20
2019-02-02T08:38:01.641Z,93.20
2019-02-02T08:43:05.700Z,93.20
2019-02-02T08:48:09.596Z,93.20
2019-02-02T08:53:13.566Z,93.30
2019-02-02T08:58:17.541Z,93.20
2019-02-02T09:03:21.245Z,93.20
2019-02-02T09:08:25.363Z,93.20
2019-02-02T09:13:29.080Z,93.20
2019-02-02T09:18:33.122Z,93.20
2019-02-02T09:23:36.859Z,93.20
2019-02-02T09:28:40.692Z,93.20
2019-02-02T09:33:44.398Z,93.30
2019-02-02T09:38:48.204Z,93.20
2019-02-02T09:43:53.244Z,93.20
2019-02-02T09:48:58.099Z,93.30
2019-02-02T09:54:02.089Z,93.40
2019-02-02T09:59:06.118Z,93.30
2019-02-02T10:04:09.958Z,93.10
2019-02-02T10:09:13.941Z,93.00
2019-02-02T10:14:17.649Z,93.00
2019-02-02T10:19:21.522Z,92.80
2019-02-02T10:24:28.425Z,92.90
2019-02-02T10:29:32.218Z,92.90
2019-02-02T10:34:36.265Z,92.90
2019-02-02T10:39:40.037Z,92.80
2019-02-02T10:44:43.837Z,92.70
2019-02-02T10:49:47.638Z,92.70
2019-02-02T10:54:51.642Z,92.60
2019-02-02T10:59:55.492Z,92.90
2019-02-02T11:04:59.573Z,92.60
2019-02-02T11:10:03.673Z,92.20
2019-02-02T11:15:09.788Z,92.70
2019-02-02T11:20:17.612Z,92.80
2019-02-02T11:25:22.392Z,92.60
2019-02-02T11:30:26.895Z,92.50
2019-02-02T11:35:31.775Z,92.60
2019-02-02T11:40:35.641Z,92.60
2019-02-02T11:45:39.422Z,92.40
2019-02-02T11:50:43.191Z,92.10
2019-02-02T11:55:47.996Z,92.20
2019-02-02T12:00:52.941Z,92.10
2019-02-02T12:05:56.666Z,92.10
2019-02-02T12:11:02.871Z,92.40
2019-02-02T12:16:06.836Z,92.60
2019-02-02T12:21:10.615Z,92.50
2019-02-02T12:26:14.349Z,92.60
2019-02-02T12:31:18.223Z,92.60
2019-02-02T12:36:21.930Z,92.80
2019-02-02T12:41:25.962Z,92.90
2019-02-02T12:46:30.158Z,93.00
2019-02-02T12:51:46.866Z,93.00
2019-02-02T12:56:51.706Z,93.00
2019-02-02T13:01:55.778Z,93.00
2019-02-02T13:06:59.535Z,93.20
2019-02-02T13:12:03.265Z,93.50
2019-02-02T13:17:06.982Z,93.60
2019-02-02T13:22:14.833Z,93.90
2019-02-02T13:27:19.375Z,94.10
2019-02-02T13:32:25.478Z,94.20
2019-02-02T13:37:29.254Z,94.20
2019-02-02T13:42:33.139Z,94.20
2019-02-02T13:47:36.985Z,94.20
2019-02-02T13:52:42.059Z,94.30
2019-02-02T13:57:46.223Z,94.30
2019-02-02T14:03:01.569Z,94.30
2019-02-02T14:07:56.418Z,94.20
2019-02-02T14:13:00.293Z,94.20
2019-02-02T14:18:05.490Z,94.20
2019-02-02T14:23:09.642Z,94.10
2019-02-02T14:28:13.513Z,94.10
2019-02-02T14:33:19.745Z,94.10
2019-02-02T14:38:26.805Z,93.90
2019-02-02T14:43:30.654Z,93.90
2019-02-02T14:48:34.424Z,93.70
2019-02-02T14:53:38.300Z,93.60
2019-02-02T14:59:03.563Z,93.60
2019-02-02T15:04:07.161Z,93.40
2019-02-02T15:09:11.210Z,93.30
2019-02-02T15:14:15.046Z,93.30
2019-02-02T15:19:18.797Z,93.20
2019-02-02T15:24:22.611Z,93.10
2019-02-02T15:34:43.467Z,93.00
2019-02-02T15:39:47.711Z,92.90
2019-02-02T15:44:53.662Z,92.90
2019-02-02T15:50:10.278Z,92.90
2019-02-02T15:55:28.807Z,92.90
2019-02-02T16:00:35.931Z,92.90
2019-02-02T16:05:40.601Z,93.00
2019-02-02T16:10:45.027Z,92.90
2019-02-02T16:15:50.747Z,92.90
2019-02-02T16:21:04.025Z,92.90
2019-02-02T16:26:14.537Z,92.90
2019-02-02T16:31:22.138Z,92.90
2019-02-02T16:36:26.601Z,92.90
2019-02-02T16:41:31.849Z,93.00
2019-02-02T16:46:36.971Z,93.00
2019-02-02T16:51:47.080Z,93.00
2019-02-02T16:56:51.584Z,93.00
2019-02-02T17:02:48.237Z,92.80
2019-02-02T17:08:05.264Z,93.00
2019-02-02T17:13:10.790Z,92.90
2019-02-02T17:18:19.261Z,92.90
2019-02-02T17:23:32.758Z,92.90
2019-02-02T17:28:59.605Z,93.00
2019-02-02T17:34:07.620Z,93.00
2019-02-02T17:39:13.858Z,93.20
2019-02-02T17:45:31.673Z,92.90
2019-02-02T17:51:11.690Z,93.40
2019-02-02T17:56:20.847Z,93.00
2019-02-02T18:01:36.892Z,93.00
2019-02-02T18:07:24.595Z,93.10
2019-02-02T18:12:33.099Z,93.20
2019-02-02T18:17:51.828Z,93.10
2019-02-02T18:35:55.218Z,93.10
2019-02-02T18:41:41.049Z,93.00
2019-02-02T18:59:58.042Z,92.90
